Passat — V7FM3 — position and weather

sailwx.info

Track history (hours):
 
Tides and Currents Weather Stations Pressure Air Temp Water Temp Dewpoint Dewpoint Depression Visibility Wind Speed Wind Dir Waves Ship Positions

Passat

Last reported at 2018-Apr-08 02:32 UTC. Time now 2018-Apr-24 02:32 UTC.
Position N 01°17' E 103°21'.
Warning: this ship's position is 16 days out of date.

Length 226 m; draft 7.7 m.

Type: Ship. MMSI: 538005616.

Date/timePositionNaut miles runAvg speedWind from/ knotsBaromVisibWave heightAir tempDewpointWater temp
2018-Apr-08 02:32N 01°17' E 103°21'012.5
2018-Apr-08 02:31N 01°17' E 103°22'712.4
2018-Apr-08 01:59N 01°13' E 103°27'511.4
2018-Apr-08 01:30N 01°12' E 103°32'611.7
2018-Apr-08 00:59N 01°11' E 103°38'3 6.9
2018-Apr-08 00:30N 01°11' E 103°42'0 0.1
2018-Apr-07 23:58N 01°11' E 103°42'0 0.1
2018-Apr-07 23:19N 01°11' E 103°42'0 0.2
2018-Apr-07 22:58N 01°11' E 103°42'0 0.0
2018-Apr-07 22:28N 01°11' E 103°42'0 0.0
2018-Apr-07 21:58N 01°11' E 103°42'0 0.0
2018-Apr-07 21:28N 01°11' E 103°42'0 0.0
2018-Apr-07 20:58N 01°11' E 103°42'0 0.0
2018-Apr-07 20:28N 01°11' E 103°42'0 0.1
2018-Apr-07 19:58N 01°11' E 103°42'0 0.0
2018-Apr-07 19:28N 01°11' E 103°42'0 0.1
2018-Apr-07 18:58N 01°11' E 103°42'0 0.1
2018-Apr-07 18:28N 01°11' E 103°42'0 0.0
2018-Apr-07 17:58N 01°11' E 103°42'0 0.0
2018-Apr-07 17:28N 01°11' E 103°42'0 0.0
2018-Apr-07 16:58N 01°11' E 103°42'0 0.0
2018-Apr-07 16:25N 01°11' E 103°42'0 0.0
2018-Apr-07 15:55N 01°11' E 103°42'0 0.0
2018-Apr-07 15:28N 01°11' E 103°42'0 0.0
2018-Apr-07 14:58N 01°11' E 103°42'0 0.1
2018-Apr-07 14:28N 01°11' E 103°42'0 0.0
2018-Apr-07 13:58N 01°12' E 103°42'0 0.1
2018-Apr-07 13:28N 01°12' E 103°42'0 0.2
2018-Apr-07 12:58N 01°11' E 103°42'0 0.0
2018-Apr-07 12:25N 01°11' E 103°42'0 0.0
2018-Apr-07 11:55N 01°11' E 103°42'0 0.2
2018-Apr-07 11:28N 01°12' E 103°42'0 0.0
2018-Apr-07 10:58N 01°12' E 103°42'0 0.1
2018-Apr-07 10:28N 01°11' E 103°42'0 0.0
2018-Apr-07 09:58N 01°11' E 103°42'0 0.1
2018-Apr-07 09:25N 01°11' E 103°42'0 0.0
2018-Apr-07 08:58N 01°11' E 103°42'0 0.0
2018-Apr-07 08:28N 01°11' E 103°42'0 0.1
2018-Apr-07 07:58N 01°11' E 103°42'0 0.1
2018-Apr-07 07:28N 01°11' E 103°42'0 0.1
2018-Apr-07 06:58N 01°11' E 103°42'0 0.1
2018-Apr-07 06:25N 01°11' E 103°42'0 0.1
2018-Apr-07 05:58N 01°11' E 103°42'0 0.1
2018-Apr-07 05:28N 01°11' E 103°42'0 0.1
2018-Apr-07 04:52N 01°11' E 103°42'0 0.0
2018-Apr-07 04:25N 01°11' E 103°42'0 0.0
2018-Apr-07 03:58N 01°11' E 103°42'0 0.1
2018-Apr-07 03:28N 01°11' E 103°42'0 0.0
2018-Apr-07 02:49N 01°11' E 103°42'0 0.0
2018-Apr-07 02:28N 01°11' E 103°42'0 0.0
2018-Apr-07 01:58N 01°11' E 103°42'0 0.1
2018-Apr-07 01:22N 01°11' E 103°42'0 0.0
2018-Apr-07 00:58N 01°11' E 103°42'0 0.0
2018-Apr-07 00:28N 01°11' E 103°42'0 0.1
2018-Apr-06 23:58N 01°11' E 103°42'0 0.0
2018-Apr-06 23:28N 01°11' E 103°42'0 0.0
2018-Apr-06 22:58N 01°11' E 103°42'0 0.0
2018-Apr-06 22:28N 01°11' E 103°42'0 0.0
2018-Apr-06 21:58N 01°11' E 103°42'0 0.1
2018-Apr-06 21:28N 01°11' E 103°42'0 0.0
2018-Apr-06 20:58N 01°11' E 103°42'0 0.0
2018-Apr-06 20:25N 01°11' E 103°42'0 0.1
2018-Apr-06 19:58N 01°11' E 103°42'0 0.0
2018-Apr-06 19:28N 01°11' E 103°42'0 0.1
2018-Apr-06 18:58N 01°11' E 103°42'0 0.1
2018-Apr-06 18:28N 01°11' E 103°42'0 0.1
2018-Apr-06 17:58N 01°11' E 103°42'0 0.0
2018-Apr-06 17:28N 01°11' E 103°42'0 0.0
2018-Apr-06 16:46N 01°11' E 103°42'0 0.1
2018-Apr-06 16:25N 01°11' E 103°42'0 0.6
2018-Apr-06 16:00N 01°11' E 103°41'3 5.4
2018-Apr-06 15:29N 01°12' E 103°39'3 6.9
2018-Apr-06 14:59N 01°12' E 103°35'1 2.2
2018-Apr-06 14:30N 01°11' E 103°35'1 2.6
2018-Apr-06 14:00N 01°10' E 103°36'1 2.2
2018-Apr-06 13:27N 01°09' E 103°37'1 1.8
2018-Apr-06 13:00N 01°09' E 103°38'0 1.0
2018-Apr-06 12:30N 01°10' E 103°38'0 0.5
2018-Apr-06 12:00N 01°10' E 103°38'0 0.0
2018-Apr-06 11:29N 01°10' E 103°38'0 0.0
2018-Apr-06 10:59N 01°10' E 103°38'0 0.0
2018-Apr-06 10:27N 01°10' E 103°38'0 0.0
2018-Apr-06 09:54N 01°10' E 103°38'0 0.0
2018-Apr-06 09:30N 01°10' E 103°38'0 0.0
2018-Apr-06 08:59N 01°10' E 103°38'0 0.0
2018-Apr-06 08:30N 01°10' E 103°38'0 0.1
2018-Apr-06 08:00N 01°10' E 103°38'0 0.0
2018-Apr-06 07:30N 01°10' E 103°38'0 0.0
2018-Apr-06 06:54N 01°10' E 103°38'0 0.0
2018-Apr-06 06:29N 01°10' E 103°38'0 0.1
2018-Apr-06 06:00N 01°10' E 103°38'0 0.2
2018-Apr-06 05:30N 01°10' E 103°38'0 0.1
2018-Apr-06 05:00N 01°10' E 103°38'0 0.1
2018-Apr-06 04:30N 01°10' E 103°38'0 0.0
2018-Apr-06 03:52N 01°10' E 103°38'0 0.0
2018-Apr-06 03:30N 01°10' E 103°38'0 0.0
2018-Apr-06 02:59N 01°10' E 103°38'0 0.0
2018-Apr-06 02:30N 01°10' E 103°38'0 0.0
2018-Apr-06 02:00N 01°10' E 103°38'0 0.1
2018-Apr-06 01:30N 01°10' E 103°38'0 0.0
2018-Apr-06 00:59N 01°10' E 103°38'0 0.0
2018-Apr-06 00:30N 01°10' E 103°38'0 0.1
2018-Apr-06 00:00N 01°10' E 103°38'0 0.0
2018-Apr-05 23:30N 01°10' E 103°38'0 0.1
2018-Apr-05 22:57N 01°10' E 103°38'0 0.0
2018-Apr-05 22:29N 01°10' E 103°38'0 0.0
2018-Apr-05 21:59N 01°10' E 103°38'0 0.1
2018-Apr-05 21:30N 01°10' E 103°38'0 0.0
2018-Apr-05 21:00N 01°10' E 103°38'0 0.0
2018-Apr-05 20:30N 01°10' E 103°38'0 0.0
2018-Apr-05 20:00N 01°10' E 103°38'0 0.1
2018-Apr-05 19:30N 01°10' E 103°38'0 0.2
2018-Apr-05 19:00N 01°10' E 103°38'0 0.1
2018-Apr-05 18:30N 01°10' E 103°38'0 0.1
2018-Apr-05 17:59N 01°10' E 103°38'0 0.0
2018-Apr-05 17:30N 01°10' E 103°38'0 0.3
2018-Apr-05 17:00N 01°10' E 103°38'0 0.1
2018-Apr-05 16:30N 01°10' E 103°38'0 0.0
2018-Apr-05 16:00N 01°10' E 103°38'0 0.1
2018-Apr-05 15:28N 01°10' E 103°38'0 0.0
2018-Apr-05 15:00N 01°10' E 103°38'0 0.2
2018-Apr-05 13:59N 01°10' E 103°38'0 0.0
2018-Apr-05 11:58N 01°10' E 103°38'0 0.2
2018-Apr-05 11:30N 01°10' E 103°38'1 1.3
2018-Apr-05 10:59N 01°09' E 103°37'1 1.9
2018-Apr-05 10:29N 01°09' E 103°38'0 0.0
2018-Apr-05 09:53N 01°09' E 103°38'0 0.0
2018-Apr-05 09:26N 01°09' E 103°38'0 0.0
2018-Apr-05 08:59N 01°09' E 103°38'0 0.0
2018-Apr-05 08:29N 01°09' E 103°38'0 0.1
2018-Apr-05 08:00N 01°09' E 103°38'1 1.8
2018-Apr-05 07:30N 01°09' E 103°38'3 5.8
2018-Apr-05 06:59N 01°10' E 103°41'4 8.0
2018-Apr-05 06:30N 01°09' E 103°45'612.3
2018-Apr-05 06:00N 01°12' E 103°51'714.2
2018-Apr-05 05:30N 01°15' E 103°57'612.0
2018-Apr-05 04:59N 01°16' E 104°03'3 5.1
2018-Apr-05 04:20N 01°19' E 104°04'9 5.4
2018-Apr-05 02:41N 01°24' E 103°56'3 8.1
2018-Apr-05 02:18N 01°26' E 103°54'  
Track history (hours):
 
Tides and Currents Weather Stations Pressure Air Temp Water Temp Dewpoint Dewpoint Depression Visibility Wind Speed Wind Dir Waves Ship Positions

Passat

Last reported at 2018-Apr-08 02:32 UTC. Time now 2018-Apr-24 02:32 UTC.
Position N 01°17' E 103°21'.
Warning: this ship's position is 16 days out of date.

Length 226 m; draft 7.7 m.

Type: Ship. MMSI: 538005616.

Date/timePositionNaut miles runAvg speedWind from/ knotsBaromVisibWave heightAir tempDewpointWater temp
2018-Apr-08 02:32N 01°17' E 103°21'012.5
2018-Apr-08 02:31N 01°17' E 103°22'712.4
2018-Apr-08 01:59N 01°13' E 103°27'511.4
2018-Apr-08 01:30N 01°12' E 103°32'611.7
2018-Apr-08 00:59N 01°11' E 103°38'3 6.9
2018-Apr-08 00:30N 01°11' E 103°42'0 0.1
2018-Apr-07 23:58N 01°11' E 103°42'0 0.1
2018-Apr-07 23:19N 01°11' E 103°42'0 0.2
2018-Apr-07 22:58N 01°11' E 103°42'0 0.0
2018-Apr-07 22:28N 01°11' E 103°42'0 0.0
2018-Apr-07 21:58N 01°11' E 103°42'0 0.0
2018-Apr-07 21:28N 01°11' E 103°42'0 0.0
2018-Apr-07 20:58N 01°11' E 103°42'0 0.0
2018-Apr-07 20:28N 01°11' E 103°42'0 0.1
2018-Apr-07 19:58N 01°11' E 103°42'0 0.0
2018-Apr-07 19:28N 01°11' E 103°42'0 0.1
2018-Apr-07 18:58N 01°11' E 103°42'0 0.1
2018-Apr-07 18:28N 01°11' E 103°42'0 0.0
2018-Apr-07 17:58N 01°11' E 103°42'0 0.0
2018-Apr-07 17:28N 01°11' E 103°42'0 0.0
2018-Apr-07 16:58N 01°11' E 103°42'0 0.0
2018-Apr-07 16:25N 01°11' E 103°42'0 0.0
2018-Apr-07 15:55N 01°11' E 103°42'0 0.0
2018-Apr-07 15:28N 01°11' E 103°42'0 0.0
2018-Apr-07 14:58N 01°11' E 103°42'0 0.1
2018-Apr-07 14:28N 01°11' E 103°42'0 0.0
2018-Apr-07 13:58N 01°12' E 103°42'0 0.1
2018-Apr-07 13:28N 01°12' E 103°42'0 0.2
2018-Apr-07 12:58N 01°11' E 103°42'0 0.0
2018-Apr-07 12:25N 01°11' E 103°42'0 0.0
2018-Apr-07 11:55N 01°11' E 103°42'0 0.2
2018-Apr-07 11:28N 01°12' E 103°42'0 0.0
2018-Apr-07 10:58N 01°12' E 103°42'0 0.1
2018-Apr-07 10:28N 01°11' E 103°42'0 0.0
2018-Apr-07 09:58N 01°11' E 103°42'0 0.1
2018-Apr-07 09:25N 01°11' E 103°42'0 0.0
2018-Apr-07 08:58N 01°11' E 103°42'0 0.0
2018-Apr-07 08:28N 01°11' E 103°42'0 0.1
2018-Apr-07 07:58N 01°11' E 103°42'0 0.1
2018-Apr-07 07:28N 01°11' E 103°42'0 0.1
2018-Apr-07 06:58N 01°11' E 103°42'0 0.1
2018-Apr-07 06:25N 01°11' E 103°42'0 0.1
2018-Apr-07 05:58N 01°11' E 103°42'0 0.1
2018-Apr-07 05:28N 01°11' E 103°42'0 0.1
2018-Apr-07 04:52N 01°11' E 103°42'0 0.0
2018-Apr-07 04:25N 01°11' E 103°42'0 0.0
2018-Apr-07 03:58N 01°11' E 103°42'0 0.1
2018-Apr-07 03:28N 01°11' E 103°42'0 0.0
2018-Apr-07 02:49N 01°11' E 103°42'0 0.0
2018-Apr-07 02:28N 01°11' E 103°42'0 0.0
2018-Apr-07 01:58N 01°11' E 103°42'0 0.1
2018-Apr-07 01:22N 01°11' E 103°42'0 0.0
2018-Apr-07 00:58N 01°11' E 103°42'0 0.0
2018-Apr-07 00:28N 01°11' E 103°42'0 0.1
2018-Apr-06 23:58N 01°11' E 103°42'0 0.0
2018-Apr-06 23:28N 01°11' E 103°42'0 0.0
2018-Apr-06 22:58N 01°11' E 103°42'0 0.0
2018-Apr-06 22:28N 01°11' E 103°42'0 0.0
2018-Apr-06 21:58N 01°11' E 103°42'0 0.1
2018-Apr-06 21:28N 01°11' E 103°42'0 0.0
2018-Apr-06 20:58N 01°11' E 103°42'0 0.0
2018-Apr-06 20:25N 01°11' E 103°42'0 0.1
2018-Apr-06 19:58N 01°11' E 103°42'0 0.0
2018-Apr-06 19:28N 01°11' E 103°42'0 0.1
2018-Apr-06 18:58N 01°11' E 103°42'0 0.1
2018-Apr-06 18:28N 01°11' E 103°42'0 0.1
2018-Apr-06 17:58N 01°11' E 103°42'0 0.0
2018-Apr-06 17:28N 01°11' E 103°42'0 0.0
2018-Apr-06 16:46N 01°11' E 103°42'0 0.1
2018-Apr-06 16:25N 01°11' E 103°42'0 0.6
2018-Apr-06 16:00N 01°11' E 103°41'3 5.4
2018-Apr-06 15:29N 01°12' E 103°39'3 6.9
2018-Apr-06 14:59N 01°12' E 103°35'1 2.2
2018-Apr-06 14:30N 01°11' E 103°35'1 2.6
2018-Apr-06 14:00N 01°10' E 103°36'1 2.2
2018-Apr-06 13:27N 01°09' E 103°37'1 1.8
2018-Apr-06 13:00N 01°09' E 103°38'0 1.0
2018-Apr-06 12:30N 01°10' E 103°38'0 0.5
2018-Apr-06 12:00N 01°10' E 103°38'0 0.0
2018-Apr-06 11:29N 01°10' E 103°38'0 0.0
2018-Apr-06 10:59N 01°10' E 103°38'0 0.0
2018-Apr-06 10:27N 01°10' E 103°38'0 0.0
2018-Apr-06 09:54N 01°10' E 103°38'0 0.0
2018-Apr-06 09:30N 01°10' E 103°38'0 0.0
2018-Apr-06 08:59N 01°10' E 103°38'0 0.0
2018-Apr-06 08:30N 01°10' E 103°38'0 0.1
2018-Apr-06 08:00N 01°10' E 103°38'0 0.0
2018-Apr-06 07:30N 01°10' E 103°38'0 0.0
2018-Apr-06 06:54N 01°10' E 103°38'0 0.0
2018-Apr-06 06:29N 01°10' E 103°38'0 0.1
2018-Apr-06 06:00N 01°10' E 103°38'0 0.2
2018-Apr-06 05:30N 01°10' E 103°38'0 0.1
2018-Apr-06 05:00N 01°10' E 103°38'0 0.1
2018-Apr-06 04:30N 01°10' E 103°38'0 0.0
2018-Apr-06 03:52N 01°10' E 103°38'0 0.0
2018-Apr-06 03:30N 01°10' E 103°38'0 0.0
2018-Apr-06 02:59N 01°10' E 103°38'0 0.0
2018-Apr-06 02:30N 01°10' E 103°38'0 0.0
2018-Apr-06 02:00N 01°10' E 103°38'0 0.1
2018-Apr-06 01:30N 01°10' E 103°38'0 0.0
2018-Apr-06 00:59N 01°10' E 103°38'0 0.0
2018-Apr-06 00:30N 01°10' E 103°38'0 0.1
2018-Apr-06 00:00N 01°10' E 103°38'0 0.0
2018-Apr-05 23:30N 01°10' E 103°38'0 0.1
2018-Apr-05 22:57N 01°10' E 103°38'0 0.0
2018-Apr-05 22:29N 01°10' E 103°38'0 0.0
2018-Apr-05 21:59N 01°10' E 103°38'0 0.1
2018-Apr-05 21:30N 01°10' E 103°38'0 0.0
2018-Apr-05 21:00N 01°10' E 103°38'0 0.0
2018-Apr-05 20:30N 01°10' E 103°38'0 0.0
2018-Apr-05 20:00N 01°10' E 103°38'0 0.1
2018-Apr-05 19:30N 01°10' E 103°38'0 0.2
2018-Apr-05 19:00N 01°10' E 103°38'0 0.1
2018-Apr-05 18:30N 01°10' E 103°38'0 0.1
2018-Apr-05 17:59N 01°10' E 103°38'0 0.0
2018-Apr-05 17:30N 01°10' E 103°38'0 0.3
2018-Apr-05 17:00N 01°10' E 103°38'0 0.1
2018-Apr-05 16:30N 01°10' E 103°38'0 0.0
2018-Apr-05 16:00N 01°10' E 103°38'0 0.1
2018-Apr-05 15:28N 01°10' E 103°38'0 0.0
2018-Apr-05 15:00N 01°10' E 103°38'0 0.2
2018-Apr-05 13:59N 01°10' E 103°38'0 0.0
2018-Apr-05 11:58N 01°10' E 103°38'0 0.2
2018-Apr-05 11:30N 01°10' E 103°38'1 1.3
2018-Apr-05 10:59N 01°09' E 103°37'1 1.9
2018-Apr-05 10:29N 01°09' E 103°38'0 0.0
2018-Apr-05 09:53N 01°09' E 103°38'0 0.0
2018-Apr-05 09:26N 01°09' E 103°38'0 0.0
2018-Apr-05 08:59N 01°09' E 103°38'0 0.0
2018-Apr-05 08:29N 01°09' E 103°38'0 0.1
2018-Apr-05 08:00N 01°09' E 103°38'1 1.8
2018-Apr-05 07:30N 01°09' E 103°38'3 5.8
2018-Apr-05 06:59N 01°10' E 103°41'4 8.0
2018-Apr-05 06:30N 01°09' E 103°45'612.3
2018-Apr-05 06:00N 01°12' E 103°51'714.2
2018-Apr-05 05:30N 01°15' E 103°57'612.0
2018-Apr-05 04:59N 01°16' E 104°03'3 5.1
2018-Apr-05 04:20N 01°19' E 104°04'9 5.4
2018-Apr-05 02:41N 01°24' E 103°56'3 8.1
2018-Apr-05 02:18N 01°26' E 103°54'  

Dump ship's entire track history